Time;durP1;ratioP1;P1;durP2;ratioP2;P2;SDS_P1;SDS_P2;PMS_P1;PMS_P2;Temp;Humidity;BMP_temperature;BMP_pressure;BME280_temperature;BME280_humidity;BME280_pressure;Samples;Min_cycle;Max_cycle;Signal;HPM_P1;HPM_P2
2023/09/23 00:00:36;;;;;;;3.17;1.88;;;12.10;99.90;;;;;;5012551;28;20034;-94
2023/09/23 00:03:03;;;;;;;3.17;1.70;;;12.10;99.90;;;;;;5006727;28;20042;-92
2023/09/23 00:05:32;;;;;;;1.95;1.10;;;12.00;99.90;;;;;;5019113;28;20021;-92
2023/09/23 00:08:00;;;;;;;2.17;0.93;;;12.00;99.90;;;;;;4993414;28;20045;-95
2023/09/23 00:10:27;;;;;;;2.90;0.80;;;12.00;99.90;;;;;;5012642;28;20030;-92
2023/09/23 00:12:55;;;;;;;1.67;0.55;;;12.00;99.90;;;;;;5011231;28;20026;-92
2023/09/23 00:15:21;;;;;;;1.30;0.50;;;11.90;99.90;;;;;;5009766;28;20393;-93
2023/09/23 00:17:49;;;;;;;1.00;0.40;;;11.80;99.90;;;;;;4993033;28;20108;-91
2023/09/23 00:20:15;;;;;;;1.05;0.30;;;11.80;99.90;;;;;;5012823;28;20029;-92
2023/09/23 00:22:47;;;;;;;1.20;0.30;;;11.80;99.90;;;;;;4995857;28;20538;-92
2023/09/23 00:25:18;;;;;;;0.82;0.20;;;11.80;99.90;;;;;;5009334;28;20031;-91
2023/09/23 00:27:44;;;;;;;0.50;0.20;;;11.80;99.90;;;;;;4994446;28;20042;-90
2023/09/23 00:30:12;;;;;;;0.70;0.20;;;11.70;99.90;;;;;;4980932;28;20031;-93
2023/09/23 00:32:41;;;;;;;0.35;0.10;;;11.60;99.90;;;;;;4993048;28;20051;-90
2023/09/23 00:35:10;;;;;;;0.75;0.10;;;11.60;99.90;;;;;;5004388;28;20024;-89
2023/09/23 00:37:36;;;;;;;0.52;0.10;;;11.60;99.90;;;;;;4994952;28;20032;-93
2023/09/23 00:40:03;;;;;;;0.45;0.10;;;11.60;99.90;;;;;;4978839;28;20031;-92
2023/09/23 00:42:29;;;;;;;0.35;0.10;;;11.50;99.90;;;;;;4992631;28;20111;-91
2023/09/23 00:44:55;;;;;;;0.35;0.10;;;11.50;99.90;;;;;;4994895;28;20115;-91
2023/09/23 00:47:22;;;;;;;0.30;0.00;;;11.50;99.90;;;;;;4910432;28;20554;-93
2023/09/23 00:49:48;;;;;;;0.30;0.00;;;11.40;99.90;;;;;;4996294;28;20038;-91
2023/09/23 00:52:16;;;;;;;0.15;0.00;;;11.40;99.90;;;;;;4993752;28;20377;-92
2023/09/23 00:54:42;;;;;;;0.20;0.10;;;11.40;99.90;;;;;;4995571;28;20035;-92
2023/09/23 00:57:10;;;;;;;1.88;0.10;;;11.30;99.90;;;;;;4993775;28;20024;-93
2023/09/23 00:59:36;;;;;;;0.40;0.10;;;11.30;99.90;;;;;;4982242;28;20032;-92
2023/09/23 01:02:06;;;;;;;0.30;0.10;;;11.30;99.90;;;;;;4992949;28;20040;-90
2023/09/23 01:04:32;;;;;;;0.40;0.20;;;11.30;99.90;;;;;;4994088;28;20039;-91
2023/09/23 01:07:00;;;;;;;0.80;0.20;;;11.30;99.90;;;;;;5008536;28;20039;-91
2023/09/23 01:09:27;;;;;;;0.75;0.30;;;11.30;99.90;;;;;;4987889;28;20036;-91
2023/09/23 01:11:55;;;;;;;1.30;0.20;;;11.20;99.90;;;;;;4981624;28;20035;-91
2023/09/23 01:14:23;;;;;;;0.47;0.13;;;11.20;99.90;;;;;;4988548;28;20035;-91
2023/09/23 01:16:51;;;;;;;0.52;0.20;;;11.20;99.90;;;;;;4997673;28;20027;-91
2023/09/23 01:19:18;;;;;;;0.70;0.22;;;11.20;99.90;;;;;;4975669;28;20027;-90
2023/09/23 01:21:50;;;;;;;1.38;0.25;;;11.20;99.90;;;;;;4997924;28;20055;-91
2023/09/23 01:24:19;;;;;;;0.60;0.20;;;11.20;99.90;;;;;;5011531;28;20387;-91
2023/09/23 01:26:52;;;;;;;0.68;0.30;;;11.20;99.90;;;;;;4989297;28;20028;-90
2023/09/23 01:29:22;;;;;;;1.00;0.30;;;11.30;99.90;;;;;;5006576;28;20043;-90
2023/09/23 01:32:02;;;;;;;1.20;0.30;;;11.30;99.90;;;;;;4998704;28;20407;-90
2023/09/23 01:34:28;;;;;;;;;;;11.30;99.90;;;;;;5005443;28;20028;-91
2023/09/23 01:36:54;;;;;;;1.20;0.47;;;11.30;99.90;;;;;;4990387;28;19957;-91
2023/09/23 01:39:19;;;;;;;1.50;0.40;;;11.40;99.90;;;;;;4980158;28;20063;-91
2023/09/23 01:41:45;;;;;;;1.27;0.55;;;11.30;99.90;;;;;;4921574;29;20031;-92
2023/09/23 01:44:11;;;;;;;1.73;0.77;;;11.30;99.90;;;;;;4990475;28;20406;-93
2023/09/23 01:46:37;;;;;;;1.90;0.80;;;11.30;99.90;;;;;;4980084;28;20032;-90
2023/09/23 01:49:03;;;;;;;1.70;0.80;;;11.30;99.90;;;;;;4991323;28;20033;-90
2023/09/23 01:51:29;;;;;;;1.77;0.77;;;11.30;99.90;;;;;;5001892;28;20036;-93
2023/09/23 01:53:55;;;;;;;2.40;1.35;;;11.30;99.90;;;;;;4981033;28;20051;-90
2023/09/23 01:56:20;;;;;;;2.15;1.10;;;11.30;99.90;;;;;;4991233;28;20377;-92
2023/09/23 01:58:48;;;;;;;2.10;1.25;;;11.30;99.90;;;;;;4980884;28;20031;-91
2023/09/23 02:01:14;;;;;;;2.30;1.55;;;11.40;99.90;;;;;;4984403;28;20376;-90
2023/09/23 02:03:41;;;;;;;2.80;2.25;;;11.40;99.90;;;;;;5005832;28;20039;-92
2023/09/23 02:06:07;;;;;;;3.35;2.15;;;11.40;99.90;;;;;;4993620;28;20500;-93
2023/09/23 02:08:33;;;;;;;4.60;2.38;;;11.40;99.90;;;;;;4992667;28;20069;-90
2023/09/23 02:10:59;;;;;;;2.70;2.08;;;11.40;99.90;;;;;;4993898;28;20395;-92
2023/09/23 02:13:25;;;;;;;2.67;2.05;;;11.40;99.90;;;;;;4991617;28;20029;-92
2023/09/23 02:15:52;;;;;;;2.80;1.95;;;11.40;99.90;;;;;;4992453;28;20025;-90
2023/09/23 02:18:18;;;;;;;2.92;2.35;;;11.50;99.90;;;;;;4979287;28;20123;-91
2023/09/23 02:20:44;;;;;;;3.30;3.00;;;11.40;99.90;;;;;;4977689;28;20848;-90
2023/09/23 02:23:09;;;;;;;3.58;3.20;;;11.40;99.90;;;;;;4990047;28;20036;-90
2023/09/23 02:25:36;;;;;;;3.35;2.67;;;11.40;99.90;;;;;;4991434;28;20031;-91
2023/09/23 02:28:02;;;;;;;2.90;2.08;;;11.40;99.90;;;;;;4991864;28;20066;-91
2023/09/23 02:30:28;;;;;;;3.70;3.17;;;11.40;99.90;;;;;;4989040;28;20032;-92
2023/09/23 02:32:54;;;;;;;3.17;2.45;;;11.50;99.90;;;;;;4995414;28;20484;-90
2023/09/23 02:35:20;;;;;;;4.05;3.65;;;11.50;99.90;;;;;;4993614;28;20059;-89
2023/09/23 02:37:48;;;;;;;4.28;3.75;;;11.50;99.90;;;;;;4997663;28;20028;-90
2023/09/23 02:40:14;;;;;;;5.55;5.03;;;11.50;99.90;;;;;;5003938;28;20032;-90
2023/09/23 02:42:42;;;;;;;5.32;4.82;;;11.50;99.90;;;;;;4978845;28;20091;-90
2023/09/23 02:45:12;;;;;;;6.68;5.97;;;11.50;99.90;;;;;;4989184;28;20024;-91
2023/09/23 02:47:38;;;;;;;;;;;11.50;99.90;;;;;;4993147;28;20036;-92
2023/09/23 02:50:09;;;;;;;7.45;6.72;;;11.50;99.90;;;;;;4993436;28;19921;-90
2023/09/23 02:52:36;;;;;;;6.05;5.45;;;11.50;99.90;;;;;;4993189;28;20036;-90
2023/09/23 02:55:03;;;;;;;4.18;3.78;;;11.50;99.90;;;;;;4985811;28;20032;-89
2023/09/23 02:57:30;;;;;;;6.13;5.57;;;11.40;99.90;;;;;;4994084;28;20451;-90
2023/09/23 02:59:58;;;;;;;4.78;4.28;;;11.50;99.90;;;;;;4989019;28;20043;-90
2023/09/23 03:02:27;;;;;;;8.13;5.80;;;11.40;99.90;;;;;;5003663;28;20040;-91
2023/09/23 03:04:58;;;;;;;6.78;6.18;;;11.40;99.90;;;;;;4993853;28;20493;-91
2023/09/23 03:07:32;;;;;;;5.97;5.22;;;11.40;99.90;;;;;;5005708;28;20414;-91
2023/09/23 03:10:00;;;;;;;7.28;4.65;;;11.40;99.90;;;;;;4976319;28;20028;-90
2023/09/23 03:12:38;;;;;;;5.50;4.85;;;11.40;99.90;;;;;;4994290;28;20391;-91
2023/09/23 03:15:14;;;;;;;4.65;3.95;;;11.40;99.90;;;;;;4995239;28;20373;-91
2023/09/23 03:17:50;;;;;;;7.10;4.57;;;11.40;99.90;;;;;;4995726;28;20062;-90
2023/09/23 03:20:25;;;;;;;5.13;4.63;;;11.40;99.90;;;;;;4993895;28;20067;-90
2023/09/23 03:22:52;;;;;;;5.60;5.10;;;11.50;99.90;;;;;;4990745;28;20093;-91
2023/09/23 03:25:19;;;;;;;5.50;5.00;;;11.50;99.90;;;;;;4992499;28;20063;-90
2023/09/23 03:27:47;;;;;;;5.47;4.88;;;11.50;99.90;;;;;;4990991;28;20146;-91
2023/09/23 03:30:13;;;;;;;5.65;5.03;;;11.50;99.90;;;;;;4991246;28;20364;-89
2023/09/23 03:32:40;;;;;;;5.22;4.72;;;11.50;99.90;;;;;;5006346;28;20039;-89
2023/09/23 03:35:13;;;;;;;5.35;4.85;;;11.60;99.90;;;;;;4983498;28;20032;-89
2023/09/23 03:37:39;;;;;;;6.93;5.72;;;11.50;99.90;;;;;;4993313;28;20422;-90
2023/09/23 03:40:07;;;;;;;6.18;5.57;;;11.60;99.90;;;;;;4918875;28;20033;-89
2023/09/23 03:42:34;;;;;;;4.85;4.28;;;11.50;99.90;;;;;;4993558;28;20040;-90
2023/09/23 03:44:59;;;;;;;6.47;5.70;;;11.60;99.90;;;;;;4989339;28;20059;-90
2023/09/23 03:47:25;;;;;;;4.25;3.72;;;11.60;99.90;;;;;;4995787;28;20036;-90
2023/09/23 03:49:51;;;;;;;4.93;4.45;;;11.60;99.90;;;;;;4998608;28;20098;-90
2023/09/23 03:52:17;;;;;;;5.32;4.82;;;11.60;99.90;;;;;;4994063;28;20127;-89
2023/09/23 03:54:43;;;;;;;5.75;4.68;;;11.50;99.90;;;;;;5002542;28;20060;-91
2023/09/23 03:57:08;;;;;;;6.38;5.78;;;11.50;99.90;;;;;;4970216;28;20036;-90
2023/09/23 03:59:36;;;;;;;9.32;7.32;;;11.50;99.90;;;;;;4985561;28;20028;-91
2023/09/23 04:02:01;;;;;;;4.93;4.53;;;11.50;99.90;;;;;;4988685;28;20060;-91
2023/09/23 04:04:27;;;;;;;8.02;6.65;;;11.50;99.90;;;;;;4992773;28;20032;-90
2023/09/23 04:06:53;;;;;;;4.80;4.30;;;11.50;99.90;;;;;;4994159;28;20029;-92
2023/09/23 04:09:19;;;;;;;7.97;6.25;;;11.50;99.90;;;;;;4984887;28;20082;-90
2023/09/23 04:11:46;;;;;;;5.35;4.75;;;11.40;99.90;;;;;;4993494;28;20436;-92
2023/09/23 04:14:12;;;;;;;6.43;5.30;;;11.40;99.90;;;;;;4974423;28;20522;-90
2023/09/23 04:16:37;;;;;;;7.18;5.43;;;11.40;99.90;;;;;;4984843;28;20033;-89
2023/09/23 04:19:03;;;;;;;5.93;5.30;;;11.50;99.90;;;;;;4995106;28;20032;-90
2023/09/23 04:21:31;;;;;;;5.13;4.05;;;11.50;99.90;;;;;;4971521;28;20051;-90
2023/09/23 04:23:57;;;;;;;7.82;5.65;;;11.50;99.90;;;;;;4972345;28;20487;-92
2023/09/23 04:26:24;;;;;;;6.28;4.88;;;11.50;99.90;;;;;;4985217;28;20028;-90
2023/09/23 04:28:52;;;;;;;4.47;4.07;;;11.50;99.90;;;;;;4994903;28;20122;-89
2023/09/23 04:31:18;;;;;;;5.63;4.40;;;11.50;99.90;;;;;;4995601;28;20411;-90
2023/09/23 04:33:45;;;;;;;5.65;4.40;;;11.60;99.90;;;;;;4971434;28;20047;-90
2023/09/23 04:36:12;;;;;;;4.60;4.15;;;11.60;99.90;;;;;;4991328;28;20027;-90
2023/09/23 04:38:38;;;;;;;8.80;6.13;;;11.60;99.90;;;;;;4978947;28;20550;-90
2023/09/23 04:41:05;;;;;;;5.55;4.50;;;11.60;99.90;;;;;;4984541;28;20028;-90
2023/09/23 04:43:31;;;;;;;8.13;5.60;;;11.60;99.90;;;;;;4976962;28;20032;-90
2023/09/23 04:45:57;;;;;;;9.75;5.68;;;11.60;99.90;;;;;;4975295;28;20534;-90
2023/09/23 04:48:26;;;;;;;6.00;5.40;;;11.60;99.90;;;;;;4996044;28;20123;-90
2023/09/23 04:50:55;;;;;;;7.43;4.90;;;11.70;99.90;;;;;;4982839;28;20035;-91
2023/09/23 04:53:21;;;;;;;6.78;4.88;;;11.70;99.90;;;;;;5009386;28;20403;-90
2023/09/23 04:55:47;;;;;;;6.28;4.70;;;11.70;99.90;;;;;;4978983;28;20095;-90
2023/09/23 04:58:33;;;;;;;4.75;4.00;;;11.70;99.90;;;;;;5093202;27;20735;-89
2023/09/23 05:00:59;;;;;;;5.20;4.00;;;11.70;99.90;;;;;;5076049;28;20039;-90
2023/09/23 05:03:25;;;;;;;5.55;3.95;;;11.70;99.90;;;;;;5078748;28;20028;-90
2023/09/23 05:05:50;;;;;;;4.32;3.17;;;11.60;99.90;;;;;;5075409;28;20529;-90
2023/09/23 05:08:16;;;;;;;5.63;3.25;;;11.70;99.90;;;;;;5089949;28;20024;-90
2023/09/23 05:10:42;;;;;;;6.07;3.45;;;11.70;99.90;;;;;;5081295;28;20042;-91
2023/09/23 05:13:08;;;;;;;5.70;3.45;;;11.70;99.90;;;;;;5069989;28;20029;-91
2023/09/23 05:15:34;;;;;;;7.95;4.75;;;11.70;99.90;;;;;;5079170;28;20438;-90
2023/09/23 05:18:00;;;;;;;6.88;4.07;;;11.70;99.90;;;;;;5065841;28;20057;-90
2023/09/23 05:20:26;;;;;;;3.85;3.38;;;11.70;99.90;;;;;;5064500;28;20027;-89
2023/09/23 05:22:52;;;;;;;3.53;2.97;;;11.70;99.90;;;;;;5081063;28;20392;-90
2023/09/23 05:25:18;;;;;;;6.13;3.38;;;11.80;99.90;;;;;;5066771;28;20468;-91
2023/09/23 05:27:44;;;;;;;3.78;2.92;;;11.80;99.90;;;;;;5067574;28;20032;-91
2023/09/23 05:30:11;;;;;;;5.45;3.53;;;11.80;99.90;;;;;;5086196;28;20024;-90
2023/09/23 05:32:37;;;;;;;3.63;2.88;;;11.80;99.90;;;;;;5082871;28;20033;-90
2023/09/23 05:35:10;;;;;;;5.32;2.72;;;11.80;99.90;;;;;;5066047;28;20024;-90
2023/09/23 05:37:37;;;;;;;4.20;2.70;;;11.80;99.90;;;;;;5064561;28;20544;-91
2023/09/23 05:42:48;;;;;;;5.30;3.33;;;11.80;99.90;;;;;;5078261;28;20024;-90
2023/09/23 05:45:17;;;;;;;4.85;3.47;;;11.70;99.90;;;;;;5065736;28;20035;-90
2023/09/23 05:47:45;;;;;;;5.05;3.13;;;11.70;99.90;;;;;;5083657;28;20024;-90
2023/09/23 05:50:11;;;;;;;3.80;2.13;;;11.70;99.90;;;;;;5075408;28;20029;-90
2023/09/23 05:52:37;;;;;;;3.70;2.42;;;11.70;99.90;;;;;;5084773;28;20027;-90
2023/09/23 05:55:06;;;;;;;3.53;3.17;;;11.70;99.90;;;;;;5078653;28;20488;-90
2023/09/23 05:57:34;;;;;;;5.65;4.68;;;11.60;99.90;;;;;;5091923;28;20053;-91
2023/09/23 06:00:01;;;;;;;4.40;4.00;;;11.70;99.90;;;;;;5065494;28;20039;-90
2023/09/23 06:02:30;;;;;;;4.07;3.17;;;11.60;99.90;;;;;;5083096;28;20027;-91
2023/09/23 06:04:55;;;;;;;4.50;3.33;;;11.70;99.90;;;;;;5068613;28;20369;-90
2023/09/23 06:07:21;;;;;;;3.60;2.28;;;11.70;99.90;;;;;;5085338;28;20468;-90
2023/09/23 06:09:47;;;;;;;3.75;2.08;;;11.70;99.90;;;;;;5052493;28;20112;-91
2023/09/23 06:12:13;;;;;;;4.72;3.80;;;11.70;99.90;;;;;;5073712;28;20036;-90
2023/09/23 06:14:38;;;;;;;3.85;2.47;;;11.70;99.90;;;;;;5070942;28;20030;-90
2023/09/23 06:17:04;;;;;;;3.70;1.75;;;11.80;99.90;;;;;;5052253;28;20052;-90
2023/09/23 06:19:32;;;;;;;9.27;5.57;;;11.80;99.90;;;;;;5056188;28;20027;-91
2023/09/23 06:21:58;;;;;;;3.50;3.08;;;11.80;99.90;;;;;;5087893;28;20032;-91
2023/09/23 06:24:24;;;;;;;3.75;3.25;;;11.80;99.90;;;;;;5087618;28;20028;-90
2023/09/23 06:26:50;;;;;;;4.15;2.42;;;11.90;99.90;;;;;;5071651;28;20510;-91
2023/09/23 06:29:16;;;;;;;3.03;1.88;;;12.00;99.90;;;;;;5055652;28;20185;-92
2023/09/23 06:31:42;;;;;;;4.30;2.08;;;11.90;99.90;;;;;;5053114;28;20127;-91
2023/09/23 06:34:07;;;;;;;3.50;3.17;;;12.00;99.90;;;;;;5057809;28;20439;-90
2023/09/23 06:36:33;;;;;;;4.65;3.00;;;12.00;99.90;;;;;;5054393;28;20024;-90
2023/09/23 06:38:59;;;;;;;4.22;3.13;;;12.00;99.90;;;;;;5087796;28;20377;-90
2023/09/23 06:41:25;;;;;;;3.92;2.83;;;12.10;99.90;;;;;;5055417;28;20047;-90
2023/09/23 06:43:52;;;;;;;4.22;2.80;;;12.10;99.90;;;;;;5055355;28;20028;-90
2023/09/23 06:46:18;;;;;;;3.53;2.67;;;12.10;99.90;;;;;;5082962;28;20104;-90
2023/09/23 06:48:44;;;;;;;3.85;2.50;;;12.20;99.90;;;;;;5071672;28;20155;-90
2023/09/23 06:51:10;;;;;;;3.65;2.55;;;12.30;99.90;;;;;;5065937;28;20032;-89
2023/09/23 06:53:36;;;;;;;4.18;2.17;;;12.40;99.90;;;;;;5069849;28;20024;-91
2023/09/23 06:56:02;;;;;;;4.70;3.58;;;12.50;99.90;;;;;;5051924;28;20387;-90
2023/09/23 06:58:28;;;;;;;7.75;3.35;;;12.50;99.90;;;;;;5055587;28;20048;-90
2023/09/23 07:00:54;;;;;;;5.18;3.25;;;12.40;99.90;;;;;;5060865;28;20495;-90
2023/09/23 07:03:20;;;;;;;5.90;2.63;;;12.50;99.90;;;;;;5055367;28;20495;-91
2023/09/23 07:05:45;;;;;;;4.85;3.50;;;12.60;99.90;;;;;;5062762;28;20059;-90
2023/09/23 07:08:11;;;;;;;4.80;2.40;;;12.50;99.90;;;;;;5055582;28;20102;-90
2023/09/23 07:10:41;;;;;;;3.03;2.72;;;12.60;99.90;;;;;;5056104;28;20035;-90
2023/09/23 07:13:08;;;;;;;3.60;1.30;;;12.70;99.90;;;;;;5049891;28;20509;-90
2023/09/23 07:15:38;;;;;;;2.38;1.70;;;12.80;99.90;;;;;;5047741;28;20036;-91
2023/09/23 07:18:05;;;;;;;3.28;1.67;;;12.90;99.90;;;;;;5052429;28;20044;-91
2023/09/23 07:20:31;;;;;;;2.90;2.17;;;12.90;99.90;;;;;;5048887;28;20028;-93
2023/09/23 07:22:58;;;;;;;4.00;2.08;;;13.00;99.90;;;;;;5066560;28;20113;-91
2023/09/23 07:25:24;;;;;;;5.65;2.47;;;13.00;99.90;;;;;;5050846;28;20088;-90
2023/09/23 07:27:54;;;;;;;3.28;2.35;;;13.00;99.90;;;;;;5056413;28;20027;-93
2023/09/23 07:30:20;;;;;;;4.30;3.15;;;13.10;99.90;;;;;;5056654;28;20119;-93
2023/09/23 07:32:45;;;;;;;2.92;2.10;;;13.10;99.90;;;;;;5052044;28;20123;-93
2023/09/23 07:35:11;;;;;;;4.30;2.60;;;13.20;99.90;;;;;;5064242;28;20024;-88
2023/09/23 07:37:37;;;;;;;4.45;3.10;;;13.10;99.90;;;;;;5053537;28;20036;-88
2023/09/23 07:40:06;;;;;;;5.15;2.83;;;13.30;99.90;;;;;;5053443;28;20400;-89
2023/09/23 07:42:32;;;;;;;4.63;2.88;;;13.40;99.90;;;;;;5050701;28;20471;-89
2023/09/23 07:44:58;;;;;;;2.88;2.08;;;13.50;99.90;;;;;;5051714;28;20034;-89
2023/09/23 07:47:23;;;;;;;3.40;2.22;;;13.70;99.90;;;;;;5056330;28;20119;-89
2023/09/23 07:49:49;;;;;;;5.15;2.03;;;13.90;99.90;;;;;;5049109;28;20094;-89
2023/09/23 07:52:15;;;;;;;5.03;4.35;;;13.80;99.90;;;;;;5049897;28;20380;-88
2023/09/23 07:54:40;;;;;;;4.10;2.38;;;13.60;99.90;;;;;;5054902;28;20408;-89
2023/09/23 07:57:06;;;;;;;3.42;1.95;;;13.60;99.90;;;;;;5065535;28;20069;-88
2023/09/23 07:59:32;;;;;;;3.85;1.92;;;13.70;99.90;;;;;;5048123;28;20029;-89
2023/09/23 08:01:58;;;;;;;5.13;2.65;;;13.80;99.90;;;;;;5050190;28;20474;-90
2023/09/23 08:04:23;;;;;;;4.03;2.00;;;13.70;99.90;;;;;;5046469;28;20098;-86
2023/09/23 08:06:49;;;;;;;3.88;1.88;;;13.70;99.90;;;;;;5064124;28;20476;-88
2023/09/23 08:09:15;;;;;;;5.95;3.65;;;13.90;99.90;;;;;;5044773;28;20389;-87
2023/09/23 08:11:40;;;;;;;4.65;2.75;;;13.90;99.90;;;;;;5048197;28;20029;-87
2023/09/23 08:14:06;;;;;;;6.35;2.50;;;13.90;99.90;;;;;;5045896;28;20028;-91
2023/09/23 08:16:32;;;;;;;4.40;2.00;;;13.90;99.90;;;;;;5064369;28;20040;-90
2023/09/23 08:18:57;;;;;;;2.40;1.38;;;14.00;99.90;;;;;;5047415;28;20388;-92
2023/09/23 08:21:23;;;;;;;3.10;1.63;;;13.90;99.90;;;;;;5060836;28;20055;-92
2023/09/23 08:23:49;;;;;;;4.57;2.33;;;13.80;99.90;;;;;;5049686;28;20128;-92
2023/09/23 08:26:15;;;;;;;2.70;1.25;;;13.70;99.90;;;;;;5050085;28;20043;-90
2023/09/23 08:28:42;;;;;;;2.20;1.17;;;13.90;99.90;;;;;;5067360;28;20034;-90
2023/09/23 08:31:08;;;;;;;6.15;2.97;;;14.10;99.90;;;;;;5049661;28;20028;-90
2023/09/23 08:33:35;;;;;;;2.22;1.00;;;13.80;99.90;;;;;;5048767;28;20024;-90
2023/09/23 08:36:01;;;;;;;3.22;0.85;;;14.20;99.90;;;;;;5044024;28;20480;-89
2023/09/23 08:38:26;;;;;;;6.25;3.25;;;14.30;99.90;;;;;;5046660;28;20040;-89
2023/09/23 08:40:53;;;;;;;5.88;1.70;;;14.10;99.90;;;;;;5045241;28;20032;-90
2023/09/23 08:43:35;;;;;;;3.13;1.00;;;14.20;99.90;;;;;;5048031;28;20494;-92
2023/09/23 08:46:09;;;;;;;3.72;1.20;;;14.10;99.90;;;;;;5059624;28;20070;-91
2023/09/23 08:48:38;;;;;;;1.58;0.70;;;14.40;99.90;;;;;;5046856;28;20021;-93
2023/09/23 08:51:08;;;;;;;4.40;0.90;;;15.00;99.90;;;;;;5066571;28;20027;-90
2023/09/23 08:53:37;;;;;;;;;;;15.10;99.90;;;;;;5049502;28;20076;-90
2023/09/23 08:56:05;;;;;;;4.43;1.20;;;15.20;99.90;;;;;;5056258;28;19912;-92
2023/09/23 08:58:31;;;;;;;4.18;2.05;;;14.90;99.90;;;;;;5046645;28;20052;-91
2023/09/23 09:00:57;;;;;;;2.05;1.05;;;14.70;99.90;;;;;;5047455;28;20058;-89
2023/09/23 09:03:22;;;;;;;1.95;0.63;;;14.80;99.90;;;;;;5051076;28;20060;-91
2023/09/23 09:05:48;;;;;;;2.75;0.93;;;15.00;99.90;;;;;;5040857;28;20060;-92
2023/09/23 09:08:14;;;;;;;5.10;1.38;;;15.20;99.90;;;;;;5066515;28;20052;-92
2023/09/23 09:10:41;;;;;;;3.25;1.20;;;14.80;99.90;;;;;;5055273;28;20059;-89
2023/09/23 09:13:07;;;;;;;3.05;0.60;;;15.00;99.90;;;;;;5044695;28;20044;-94
2023/09/23 09:15:35;;;;;;;2.13;0.63;;;15.20;99.90;;;;;;5050303;28;20047;-90
2023/09/23 09:18:01;;;;;;;2.10;0.60;;;15.20;99.90;;;;;;5045695;28;20411;-91
2023/09/23 09:20:28;;;;;;;3.00;0.60;;;15.20;99.90;;;;;;5047923;28;20412;-90
2023/09/23 09:22:53;;;;;;;2.42;0.70;;;15.00;99.90;;;;;;5065487;28;20028;-90
2023/09/23 09:25:20;;;;;;;2.03;0.50;;;14.90;99.90;;;;;;5043513;28;20032;-89
2023/09/23 09:27:53;;;;;;;1.98;0.50;;;15.10;99.90;;;;;;5045322;28;20036;-92
2023/09/23 09:30:19;;;;;;;1.70;0.50;;;15.40;99.90;;;;;;5050415;28;20408;-92
2023/09/23 09:32:46;;;;;;;2.17;0.40;;;15.30;99.90;;;;;;5040558;28;20469;-90
2023/09/23 09:35:17;;;;;;;4.30;0.50;;;15.50;99.90;;;;;;5046664;28;20025;-92
2023/09/23 09:37:47;;;;;;;3.17;0.80;;;15.50;99.90;;;;;;5050281;28;20032;-92
2023/09/23 09:40:18;;;;;;;3.80;0.60;;;15.50;99.90;;;;;;5045996;28;20028;-92
2023/09/23 09:42:54;;;;;;;1.80;0.57;;;15.50;99.90;;;;;;5042078;28;20029;-90
2023/09/23 09:45:23;;;;;;;3.92;1.10;;;15.50;99.90;;;;;;5069292;28;20365;-89
2023/09/23 09:47:53;;;;;;;3.00;0.47;;;15.30;99.90;;;;;;5051759;28;20037;-91
2023/09/23 09:50:22;;;;;;;3.95;0.70;;;15.50;99.90;;;;;;5065197;28;20123;-91
2023/09/23 09:52:48;;;;;;;2.58;0.75;;;15.20;99.90;;;;;;5059063;28;20097;-90
2023/09/23 09:55:17;;;;;;;2.90;0.70;;;15.20;99.90;;;;;;5071110;28;20124;-90
2023/09/23 09:57:43;;;;;;;2.72;0.60;;;15.20;99.90;;;;;;5061889;28;20052;-91
2023/09/23 10:00:20;;;;;;;2.72;0.57;;;15.10;99.90;;;;;;5064185;28;20401;-90
2023/09/23 10:02:48;;;;;;;4.47;0.60;;;15.10;99.90;;;;;;5050053;28;20070;-91
2023/09/23 10:05:20;;;;;;;2.45;0.75;;;15.00;99.90;;;;;;5049509;28;20131;-90
2023/09/23 10:07:53;;;;;;;2.78;0.60;;;14.80;99.90;;;;;;5050779;28;20029;-91
2023/09/23 10:10:34;;;;;;;4.00;0.52;;;14.70;99.90;;;;;;5049155;28;20035;-91
2023/09/23 10:13:17;;;;;;;5.55;0.73;;;14.70;99.90;;;;;;5046924;28;20025;-90
2023/09/23 10:15:43;;;;;;;5.47;0.70;;;14.70;99.90;;;;;;5068324;28;20028;-90
2023/09/23 10:18:19;;;;;;;5.20;0.90;;;14.80;99.90;;;;;;5045277;28;20040;-88
2023/09/23 10:20:50;;;;;;;1.75;0.40;;;14.70;99.90;;;;;;5049553;28;20048;-88
2023/09/23 10:23:17;;;;;;;2.08;0.40;;;14.90;99.90;;;;;;4996590;28;20041;-90
2023/09/23 10:25:44;;;;;;;3.33;0.60;;;15.10;99.90;;;;;;5039938;28;20557;-89
2023/09/23 10:28:30;;;;;;;2.40;0.40;;;15.10;99.90;;;;;;5031495;28;20036;-88
2023/09/23 10:31:01;;;;;;;2.08;0.50;;;15.20;99.90;;;;;;5030302;28;20110;-89
2023/09/23 10:33:29;;;;;;;3.28;0.60;;;15.10;99.90;;;;;;5031950;28;20047;-87
2023/09/23 10:35:59;;;;;;;4.88;0.82;;;14.90;99.90;;;;;;5032667;28;20399;-94
2023/09/23 10:38:27;;;;;;;2.53;0.80;;;14.60;99.90;;;;;;5031102;28;20068;-88
2023/09/23 10:40:54;;;;;;;3.28;0.70;;;14.40;99.90;;;;;;5032006;28;20037;-88
2023/09/23 10:43:23;;;;;;;3.28;0.70;;;14.40;99.90;;;;;;5046052;28;20056;-90
2023/09/23 10:45:53;;;;;;;2.38;0.60;;;14.40;99.90;;;;;;5040288;28;20087;-89
2023/09/23 10:48:19;;;;;;;2.35;0.60;;;14.40;99.90;;;;;;5047846;28;20091;-91
2023/09/23 10:50:46;;;;;;;2.03;0.70;;;14.30;99.90;;;;;;5032445;28;20492;-89
2023/09/23 10:53:12;;;;;;;1.90;0.75;;;14.30;99.90;;;;;;5030670;28;20863;-88
2023/09/23 10:55:39;;;;;;;2.92;0.60;;;14.20;99.90;;;;;;5033008;28;20029;-88
2023/09/23 10:58:09;;;;;;;5.30;1.20;;;14.50;99.90;;;;;;5013793;28;20065;-90
2023/09/23 11:00:38;;;;;;;5.13;1.00;;;14.50;99.90;;;;;;5017736;28;20033;-89
2023/09/23 11:03:12;;;;;;;5.15;0.95;;;14.70;99.90;;;;;;5018623;28;20044;-88
2023/09/23 11:05:39;;;;;;;4.47;1.02;;;15.10;99.90;;;;;;5030033;28;20111;-89
2023/09/23 11:08:15;;;;;;;2.97;1.20;;;15.20;99.90;;;;;;5010816;28;20033;-90
2023/09/23 11:10:43;;;;;;;3.65;1.20;;;15.60;99.90;;;;;;5027950;28;20275;-90
2023/09/23 11:13:10;;;;;;;5.50;1.15;;;15.70;99.90;;;;;;5019318;28;20059;-92
2023/09/23 11:15:40;;;;;;;5.18;1.23;;;15.90;99.90;;;;;;5003684;28;20505;-90
2023/09/23 11:18:26;;;;;;;;;;;;;;;;;;;;;
2023/09/23 11:21:02;;;;;;;5.38;1.40;;;15.90;99.90;;;;;;5031278;28;20028;-89
2023/09/23 11:23:29;;;;;;;5.00;1.20;;;16.00;99.90;;;;;;4980567;28;20435;-91
2023/09/23 11:25:56;;;;;;;2.35;0.63;;;16.50;99.90;;;;;;4978602;28;20168;-91
2023/09/23 11:28:23;;;;;;;4.38;1.08;;;16.80;99.90;;;;;;4993526;28;20037;-89
2023/09/23 11:30:50;;;;;;;4.68;1.52;;;16.40;99.90;;;;;;4979900;28;20168;-89
2023/09/23 11:33:16;;;;;;;2.80;0.60;;;15.80;99.90;;;;;;4968833;28;20033;-89
2023/09/23 11:35:43;;;;;;;2.63;0.88;;;16.40;99.90;;;;;;4979153;28;20038;-90
2023/09/23 11:38:12;;;;;;;3.15;0.80;;;16.50;99.90;;;;;;4987789;28;20057;-89
2023/09/23 11:40:38;;;;;;;3.75;0.80;;;16.10;99.90;;;;;;4978389;28;20034;-89
2023/09/23 11:43:04;;;;;;;3.08;0.70;;;16.30;99.90;;;;;;4979551;28;20042;-90
2023/09/23 11:45:32;;;;;;;3.42;0.60;;;16.50;99.90;;;;;;4988475;28;20049;-90
2023/09/23 11:47:59;;;;;;;3.60;0.80;;;16.50;99.90;;;;;;4976804;28;20498;-91
2023/09/23 11:50:28;;;;;;;4.97;0.90;;;16.20;99.90;;;;;;4979307;28;20536;-90
2023/09/23 11:52:53;;;;;;;2.45;0.50;;;16.00;99.90;;;;;;4978422;28;20055;-89
2023/09/23 11:55:22;;;;;;;3.50;0.70;;;15.90;99.90;;;;;;4979634;28;20038;-91
2023/09/23 11:57:54;;;;;;;4.28;1.10;;;15.60;99.90;;;;;;4994223;28;20078;-93
2023/09/23 12:00:20;;;;;;;7.00;1.08;;;15.10;99.90;;;;;;4999474;28;20124;-95
2023/09/23 12:02:55;;;;;;;4.55;1.23;;;14.80;99.90;;;;;;5025274;28;20033;-92
2023/09/23 12:05:29;;;;;;;4.10;1.08;;;14.60;99.90;;;;;;5024522;28;20397;-93
2023/09/23 12:07:58;;;;;;;3.78;1.13;;;14.70;99.90;;;;;;5007244;28;20091;-90
2023/09/23 12:10:29;;;;;;;3.93;1.10;;;14.90;99.90;;;;;;5022795;28;20025;-92
2023/09/23 12:13:02;;;;;;;3.75;1.55;;;15.00;99.90;;;;;;5020825;28;20029;-93
2023/09/23 12:15:29;;;;;;;3.35;1.08;;;14.90;99.90;;;;;;5005829;28;20034;-90
2023/09/23 12:17:55;;;;;;;2.28;0.77;;;15.00;99.90;;;;;;4997672;28;20041;-91
2023/09/23 12:20:22;;;;;;;2.13;0.70;;;15.10;99.90;;;;;;4997766;28;20591;-89
2023/09/23 12:22:48;;;;;;;5.00;1.13;;;15.10;99.90;;;;;;4974199;28;20061;-91
2023/09/23 12:25:17;;;;;;;2.33;0.57;;;15.20;99.90;;;;;;4997732;28;20069;-91
2023/09/23 12:27:43;;;;;;;5.45;1.52;;;15.50;99.90;;;;;;4989611;28;20037;-90
2023/09/23 12:30:09;;;;;;;4.82;1.33;;;15.50;99.90;;;;;;4990737;28;20498;-90
2023/09/23 12:32:35;;;;;;;1.60;0.80;;;15.80;99.90;;;;;;5003329;28;20048;-89
2023/09/23 12:35:01;;;;;;;2.33;0.98;;;16.10;99.90;;;;;;4991810;28;20030;-89
2023/09/23 12:37:27;;;;;;;2.15;0.70;;;16.40;99.90;;;;;;5007235;28;20053;-90
2023/09/23 12:39:56;;;;;;;1.98;0.60;;;16.60;99.90;;;;;;4990262;28;20034;-87
2023/09/23 12:42:22;;;;;;;1.80;0.45;;;16.30;99.90;;;;;;5003952;28;20596;-88
2023/09/23 12:44:48;;;;;;;1.95;0.47;;;16.40;99.90;;;;;;5013886;28;20469;-89
2023/09/23 12:47:14;;;;;;;3.10;0.40;;;16.70;99.90;;;;;;5022831;28;20030;-90
2023/09/23 12:49:40;;;;;;;2.97;0.68;;;16.50;99.90;;;;;;4997618;28;20406;-89
2023/09/23 12:52:06;;;;;;;2.42;0.70;;;16.80;99.90;;;;;;4988034;28;20116;-90